sensor_id;sensor_type;location;lat;lon;timestamp;temperature;humidity
11505;DHT22;5809;53.262;10.408;2023-11-18T00:01:31;3.90;99.90
11505;DHT22;5809;53.262;10.408;2023-11-18T00:03:58;3.90;99.90
11505;DHT22;5809;53.262;10.408;2023-11-18T00:08:52;3.90;99.90
11505;DHT22;5809;53.262;10.408;2023-11-18T00:13:46;3.90;99.90
11505;DHT22;5809;53.262;10.408;2023-11-18T00:16:14;3.90;99.90
11505;DHT22;5809;53.262;10.408;2023-11-18T00:21:09;3.90;99.90
11505;DHT22;5809;53.262;10.408;2023-11-18T00:23:37;3.90;99.90
11505;DHT22;5809;53.262;10.408;2023-11-18T00:26:04;3.90;99.90
11505;DHT22;5809;53.262;10.408;2023-11-18T00:28:32;3.90;99.90
11505;DHT22;5809;53.262;10.408;2023-11-18T00:33:27;3.90;99.90
11505;DHT22;5809;53.262;10.408;2023-11-18T00:35:54;3.90;99.90
11505;DHT22;5809;53.262;10.408;2023-11-18T00:40:48;3.90;99.90
11505;DHT22;5809;53.262;10.408;2023-11-18T00:50:38;3.80;99.90
11505;DHT22;5809;53.262;10.408;2023-11-18T00:55:32;3.80;99.90
11505;DHT22;5809;53.262;10.408;2023-11-18T00:57:59;3.80;99.90
11505;DHT22;5809;53.262;10.408;2023-11-18T01:00:25;3.80;99.90
11505;DHT22;5809;53.262;10.408;2023-11-18T01:02:53;3.80;99.90
11505;DHT22;5809;53.262;10.408;2023-11-18T01:07:48;3.80;99.90
11505;DHT22;5809;53.262;10.408;2023-11-18T01:10:15;3.80;99.90
11505;DHT22;5809;53.262;10.408;2023-11-18T01:15:11;3.90;99.90
11505;DHT22;5809;53.262;10.408;2023-11-18T01:17:38;3.80;99.90
11505;DHT22;5809;53.262;10.408;2023-11-18T01:20:06;3.90;99.90
11505;DHT22;5809;53.262;10.408;2023-11-18T01:25:07;3.90;99.90
11505;DHT22;5809;53.262;10.408;2023-11-18T01:27:34;3.90;99.90
11505;DHT22;5809;53.262;10.408;2023-11-18T01:30:00;3.90;99.90
11505;DHT22;5809;53.262;10.408;2023-11-18T01:32:27;3.90;99.90
11505;DHT22;5809;53.262;10.408;2023-11-18T01:42:18;3.90;99.90
11505;DHT22;5809;53.262;10.408;2023-11-18T01:47:14;3.90;99.90
11505;DHT22;5809;53.262;10.408;2023-11-18T01:49:41;3.90;99.90
11505;DHT22;5809;53.262;10.408;2023-11-18T01:52:10;4.00;99.90
11505;DHT22;5809;53.262;10.408;2023-11-18T01:54:38;4.00;99.90
11505;DHT22;5809;53.262;10.408;2023-11-18T01:57:06;4.00;99.90
11505;DHT22;5809;53.262;10.408;2023-11-18T01:59:36;4.00;99.90
11505;DHT22;5809;53.262;10.408;2023-11-18T02:07:00;4.00;99.90
11505;DHT22;5809;53.262;10.408;2023-11-18T02:12:03;4.00;99.90
11505;DHT22;5809;53.262;10.408;2023-11-18T02:14:32;4.00;99.90
11505;DHT22;5809;53.262;10.408;2023-11-18T02:17:03;4.00;99.90
11505;DHT22;5809;53.262;10.408;2023-11-18T02:19:31;4.00;99.90
11505;DHT22;5809;53.262;10.408;2023-11-18T02:22:00;4.00;99.90
11505;DHT22;5809;53.262;10.408;2023-11-18T02:26:58;4.00;99.90
11505;DHT22;5809;53.262;10.408;2023-11-18T02:29:26;4.00;99.90
11505;DHT22;5809;53.262;10.408;2023-11-18T02:31:59;4.10;99.90
11505;DHT22;5809;53.262;10.408;2023-11-18T02:34:30;4.10;99.90
11505;DHT22;5809;53.262;10.408;2023-11-18T02:36:57;4.10;99.90
11505;DHT22;5809;53.262;10.408;2023-11-18T02:39:29;4.00;99.90
11505;DHT22;5809;53.262;10.408;2023-11-18T02:42:01;4.10;99.90
11505;DHT22;5809;53.262;10.408;2023-11-18T02:44:30;4.10;99.90
11505;DHT22;5809;53.262;10.408;2023-11-18T02:46:58;4.10;99.90
11505;DHT22;5809;53.262;10.408;2023-11-18T02:49:26;4.10;99.90
11505;DHT22;5809;53.262;10.408;2023-11-18T02:51:53;4.10;99.90
11505;DHT22;5809;53.262;10.408;2023-11-18T02:54:21;4.00;99.90
11505;DHT22;5809;53.262;10.408;2023-11-18T02:59:16;4.00;99.90
11505;DHT22;5809;53.262;10.408;2023-11-18T03:04:11;4.00;99.90
11505;DHT22;5809;53.262;10.408;2023-11-18T03:09:07;4.00;99.90
11505;DHT22;5809;53.262;10.408;2023-11-18T03:11:36;4.00;99.90
11505;DHT22;5809;53.262;10.408;2023-11-18T03:14:03;4.00;99.90
11505;DHT22;5809;53.262;10.408;2023-11-18T03:16:33;4.00;99.90
11505;DHT22;5809;53.262;10.408;2023-11-18T03:26:21;4.10;99.90
11505;DHT22;5809;53.262;10.408;2023-11-18T03:31:15;4.10;99.90
11505;DHT22;5809;53.262;10.408;2023-11-18T03:33:43;4.10;99.90
11505;DHT22;5809;53.262;10.408;2023-11-18T03:38:38;4.20;99.90
11505;DHT22;5809;53.262;10.408;2023-11-18T03:41:05;4.20;99.90
11505;DHT22;5809;53.262;10.408;2023-11-18T03:43:33;4.20;99.90
11505;DHT22;5809;53.262;10.408;2023-11-18T03:50:57;4.20;99.90
11505;DHT22;5809;53.262;10.408;2023-11-18T03:53:24;4.20;99.90
11505;DHT22;5809;53.262;10.408;2023-11-18T03:55:51;4.20;99.90
11505;DHT22;5809;53.262;10.408;2023-11-18T04:08:07;4.10;99.90
11505;DHT22;5809;53.262;10.408;2023-11-18T04:15:28;4.00;99.90
11505;DHT22;5809;53.262;10.408;2023-11-18T04:20:22;4.00;99.90
11505;DHT22;5809;53.262;10.408;2023-11-18T04:25:18;3.90;99.90
11505;DHT22;5809;53.262;10.408;2023-11-18T04:27:44;3.90;99.90
11505;DHT22;5809;53.262;10.408;2023-11-18T04:32:39;3.80;99.90
11505;DHT22;5809;53.262;10.408;2023-11-18T04:35:08;3.90;99.90
11505;DHT22;5809;53.262;10.408;2023-11-18T04:37:37;3.90;99.90
11505;DHT22;5809;53.262;10.408;2023-11-18T04:40:08;3.90;99.90
11505;DHT22;5809;53.262;10.408;2023-11-18T04:42:38;3.90;99.90
11505;DHT22;5809;53.262;10.408;2023-11-18T04:45:05;3.80;99.90
11505;DHT22;5809;53.262;10.408;2023-11-18T04:47:35;3.80;99.90
11505;DHT22;5809;53.262;10.408;2023-11-18T04:57:25;3.50;99.90
11505;DHT22;5809;53.262;10.408;2023-11-18T04:59:53;3.50;99.90
11505;DHT22;5809;53.262;10.408;2023-11-18T05:12:08;3.10;99.90
11505;DHT22;5809;53.262;10.408;2023-11-18T05:17:05;2.90;99.90
11505;DHT22;5809;53.262;10.408;2023-11-18T05:19:32;2.80;99.90
11505;DHT22;5809;53.262;10.408;2023-11-18T05:21:58;2.70;99.90
11505;DHT22;5809;53.262;10.408;2023-11-18T05:31:51;2.40;99.90
11505;DHT22;5809;53.262;10.408;2023-11-18T05:34:19;2.40;99.90
11505;DHT22;5809;53.262;10.408;2023-11-18T05:36:46;2.40;99.90
11505;DHT22;5809;53.262;10.408;2023-11-18T05:39:14;2.40;99.90
11505;DHT22;5809;53.262;10.408;2023-11-18T05:49:12;2.30;99.90
11505;DHT22;5809;53.262;10.408;2023-11-18T05:51:41;3.60;99.90
11505;DHT22;5809;53.262;10.408;2023-11-18T05:54:07;2.40;99.90
11505;DHT22;5809;53.262;10.408;2023-11-18T05:56:34;2.30;99.90
11505;DHT22;5809;53.262;10.408;2023-11-18T05:59:01;2.40;99.90
11505;DHT22;5809;53.262;10.408;2023-11-18T06:08:54;2.50;99.90
11505;DHT22;5809;53.262;10.408;2023-11-18T06:11:24;2.60;99.90
11505;DHT22;5809;53.262;10.408;2023-11-18T06:13:52;2.50;99.90
11505;DHT22;5809;53.262;10.408;2023-11-18T06:16:20;2.50;99.90
11505;DHT22;5809;53.262;10.408;2023-11-18T06:18:48;2.50;99.90
11505;DHT22;5809;53.262;10.408;2023-11-18T06:21:16;2.50;99.90
11505;DHT22;5809;53.262;10.408;2023-11-18T06:23:46;2.40;99.90
11505;DHT22;5809;53.262;10.408;2023-11-18T06:26:14;2.30;99.90
11505;DHT22;5809;53.262;10.408;2023-11-18T06:28:42;2.30;99.90
11505;DHT22;5809;53.262;10.408;2023-11-18T06:33:38;2.10;99.90
11505;DHT22;5809;53.262;10.408;2023-11-18T06:36:06;2.20;99.90
11505;DHT22;5809;53.262;10.408;2023-11-18T06:38:33;2.10;99.90
11505;DHT22;5809;53.262;10.408;2023-11-18T06:43:35;2.00;99.90
11505;DHT22;5809;53.262;10.408;2023-11-18T06:58:38;1.80;99.90
11505;DHT22;5809;53.262;10.408;2023-11-18T07:01:05;1.80;99.90
11505;DHT22;5809;53.262;10.408;2023-11-18T07:03:32;1.80;99.90
11505;DHT22;5809;53.262;10.408;2023-11-18T07:05:59;1.80;99.90
11505;DHT22;5809;53.262;10.408;2023-11-18T07:08:26;1.70;99.90
11505;DHT22;5809;53.262;10.408;2023-11-18T07:13:19;1.70;99.90
11505;DHT22;5809;53.262;10.408;2023-11-18T07:15:50;1.70;99.90
11505;DHT22;5809;53.262;10.408;2023-11-18T07:18:18;1.70;99.90
11505;DHT22;5809;53.262;10.408;2023-11-18T07:20:47;1.70;99.90
11505;DHT22;5809;53.262;10.408;2023-11-18T07:23:14;1.80;99.90
11505;DHT22;5809;53.262;10.408;2023-11-18T07:33:05;1.80;99.90
11505;DHT22;5809;53.262;10.408;2023-11-18T07:35:34;1.90;99.90
11505;DHT22;5809;53.262;10.408;2023-11-18T07:40:28;1.90;99.90
11505;DHT22;5809;53.262;10.408;2023-11-18T07:45:22;2.40;99.90
11505;DHT22;5809;53.262;10.408;2023-11-18T07:50:17;3.30;99.90
11505;DHT22;5809;53.262;10.408;2023-11-18T07:52:45;4.00;99.90
11505;DHT22;5809;53.262;10.408;2023-11-18T08:00:08;5.00;99.90
11505;DHT22;5809;53.262;10.408;2023-11-18T08:02:36;5.10;99.90
11505;DHT22;5809;53.262;10.408;2023-11-18T08:05:03;5.00;99.90
11505;DHT22;5809;53.262;10.408;2023-11-18T08:07:34;5.10;99.90
11505;DHT22;5809;53.262;10.408;2023-11-18T08:10:01;5.30;99.90
11505;DHT22;5809;53.262;10.408;2023-11-18T08:12:30;5.40;99.90
11505;DHT22;5809;53.262;10.408;2023-11-18T08:14:56;5.20;99.90
11505;DHT22;5809;53.262;10.408;2023-11-18T08:17:24;5.30;99.90
11505;DHT22;5809;53.262;10.408;2023-11-18T08:19:51;5.30;99.90
11505;DHT22;5809;53.262;10.408;2023-11-18T08:24:49;4.90;99.90
11505;DHT22;5809;53.262;10.408;2023-11-18T08:39:36;4.90;99.90
11505;DHT22;5809;53.262;10.408;2023-11-18T08:42:04;4.80;99.90
11505;DHT22;5809;53.262;10.408;2023-11-18T08:47:00;4.30;99.90
11505;DHT22;5809;53.262;10.408;2023-11-18T08:51:59;3.90;99.90
11505;DHT22;5809;53.262;10.408;2023-11-18T08:57:04;4.00;99.90
11505;DHT22;5809;53.262;10.408;2023-11-18T09:02:12;3.90;99.90
11505;DHT22;5809;53.262;10.408;2023-11-18T09:04:41;3.80;99.90
11505;DHT22;5809;53.262;10.408;2023-11-18T09:12:07;4.10;99.90
11505;DHT22;5809;53.262;10.408;2023-11-18T09:24:26;7.20;99.90
11505;DHT22;5809;53.262;10.408;2023-11-18T09:26:53;7.20;99.90
11505;DHT22;5809;53.262;10.408;2023-11-18T09:29:21;7.30;99.90
11505;DHT22;5809;53.262;10.408;2023-11-18T09:31:49;6.90;99.90
11505;DHT22;5809;53.262;10.408;2023-11-18T09:34:18;6.70;99.90
11505;DHT22;5809;53.262;10.408;2023-11-18T09:36:52;7.00;99.90
11505;DHT22;5809;53.262;10.408;2023-11-18T09:39:19;7.70;99.90
11505;DHT22;5809;53.262;10.408;2023-11-18T09:41:55;8.10;99.90
11505;DHT22;5809;53.262;10.408;2023-11-18T09:44:23;7.50;99.90
11505;DHT22;5809;53.262;10.408;2023-11-18T09:46:57;6.70;99.90
11505;DHT22;5809;53.262;10.408;2023-11-18T09:49:32;6.20;99.90
11505;DHT22;5809;53.262;10.408;2023-11-18T09:52:05;6.10;99.90
11505;DHT22;5809;53.262;10.408;2023-11-18T09:54:39;6.00;99.90
11505;DHT22;5809;53.262;10.408;2023-11-18T09:57:08;6.10;99.90
11505;DHT22;5809;53.262;10.408;2023-11-18T09:59:49;6.00;99.90
11505;DHT22;5809;53.262;10.408;2023-11-18T10:04:52;6.10;99.90
11505;DHT22;5809;53.262;10.408;2023-11-18T10:07:24;6.30;99.90
11505;DHT22;5809;53.262;10.408;2023-11-18T10:09:54;6.60;99.90
11505;DHT22;5809;53.262;10.408;2023-11-18T10:12:22;8.60;99.90
11505;DHT22;5809;53.262;10.408;2023-11-18T10:14:53;7.20;99.90
11505;DHT22;5809;53.262;10.408;2023-11-18T10:17:22;7.40;99.90
11505;DHT22;5809;53.262;10.408;2023-11-18T10:19:55;7.70;99.90
11505;DHT22;5809;53.262;10.408;2023-11-18T10:22:24;8.00;99.90
11505;DHT22;5809;53.262;10.408;2023-11-18T10:24:52;7.10;99.90
11505;DHT22;5809;53.262;10.408;2023-11-18T10:27:21;6.80;99.90
11505;DHT22;5809;53.262;10.408;2023-11-18T10:29:55;6.60;99.90
11505;DHT22;5809;53.262;10.408;2023-11-18T10:34:54;7.00;99.90
11505;DHT22;5809;53.262;10.408;2023-11-18T10:42:17;7.60;99.90
11505;DHT22;5809;53.262;10.408;2023-11-18T10:44:58;7.40;99.90
11505;DHT22;5809;53.262;10.408;2023-11-18T10:47:27;7.40;99.90
11505;DHT22;5809;53.262;10.408;2023-11-18T10:52:23;7.50;99.90
11505;DHT22;5809;53.262;10.408;2023-11-18T10:54:51;7.70;99.90
11505;DHT22;5809;53.262;10.408;2023-11-18T11:00:01;8.40;99.90
11505;DHT22;5809;53.262;10.408;2023-11-18T11:02:33;8.80;99.90
11505;DHT22;5809;53.262;10.408;2023-11-18T11:05:05;9.00;99.90
11505;DHT22;5809;53.262;10.408;2023-11-18T11:07:33;8.70;99.90
11505;DHT22;5809;53.262;10.408;2023-11-18T11:10:00;8.40;99.90
11505;DHT22;5809;53.262;10.408;2023-11-18T11:12:33;8.40;99.90
11505;DHT22;5809;53.262;10.408;2023-11-18T11:15:06;8.50;99.90
11505;DHT22;5809;53.262;10.408;2023-11-18T11:17:39;8.70;99.90
11505;DHT22;5809;53.262;10.408;2023-11-18T11:20:08;8.80;99.90
11505;DHT22;5809;53.262;10.408;2023-11-18T11:22:52;8.70;99.90
11505;DHT22;5809;53.262;10.408;2023-11-18T11:25:31;8.60;99.90
11505;DHT22;5809;53.262;10.408;2023-11-18T11:28:08;8.50;99.90
11505;DHT22;5809;53.262;10.408;2023-11-18T11:30:44;8.80;99.90
11505;DHT22;5809;53.262;10.408;2023-11-18T11:33:17;9.50;99.90
11505;DHT22;5809;53.262;10.408;2023-11-18T11:35:52;9.60;99.90
11505;DHT22;5809;53.262;10.408;2023-11-18T11:38:20;8.90;99.90
11505;DHT22;5809;53.262;10.408;2023-11-18T11:40:48;8.90;99.90
11505;DHT22;5809;53.262;10.408;2023-11-18T11:43:18;9.70;99.90
11505;DHT22;5809;53.262;10.408;2023-11-18T11:45:49;9.20;99.90
11505;DHT22;5809;53.262;10.408;2023-11-18T11:48:18;9.10;99.90
11505;DHT22;5809;53.262;10.408;2023-11-18T11:51:06;9.10;99.90
11505;DHT22;5809;53.262;10.408;2023-11-18T11:53:41;8.90;99.90
11505;DHT22;5809;53.262;10.408;2023-11-18T11:56:11;8.60;99.90
11505;DHT22;5809;53.262;10.408;2023-11-18T11:58:45;9.10;99.90
11505;DHT22;5809;53.262;10.408;2023-11-18T12:01:24;9.30;99.90
11505;DHT22;5809;53.262;10.408;2023-11-18T12:03:56;9.70;99.90
11505;DHT22;5809;53.262;10.408;2023-11-18T12:06:23;9.20;99.90
11505;DHT22;5809;53.262;10.408;2023-11-18T12:08:52;8.70;99.90
11505;DHT22;5809;53.262;10.408;2023-11-18T12:11:19;8.20;99.90
11505;DHT22;5809;53.262;10.408;2023-11-18T12:14:02;8.20;99.90
11505;DHT22;5809;53.262;10.408;2023-11-18T12:17:04;8.10;99.90
11505;DHT22;5809;53.262;10.408;2023-11-18T12:19:36;7.80;99.90
11505;DHT22;5809;53.262;10.408;2023-11-18T12:27:12;7.50;99.90
11505;DHT22;5809;53.262;10.408;2023-11-18T12:29:42;7.10;99.90
11505;DHT22;5809;53.262;10.408;2023-11-18T12:32:11;6.80;99.90
11505;DHT22;5809;53.262;10.408;2023-11-18T12:34:52;6.50;99.90
11505;DHT22;5809;53.262;10.408;2023-11-18T12:37:47;6.50;99.90
11505;DHT22;5809;53.262;10.408;2023-11-18T12:40:45;6.70;99.90
11505;DHT22;5809;53.262;10.408;2023-11-18T12:49:03;6.30;99.90
11505;DHT22;5809;53.262;10.408;2023-11-18T12:51:31;6.30;99.90
11505;DHT22;5809;53.262;10.408;2023-11-18T12:54:01;6.30;99.90
11505;DHT22;5809;53.262;10.408;2023-11-18T13:03:59;6.10;99.90
11505;DHT22;5809;53.262;10.408;2023-11-18T13:06:28;6.10;99.90
11505;DHT22;5809;53.262;10.408;2023-11-18T13:08:55;6.00;99.90
11505;DHT22;5809;53.262;10.408;2023-11-18T13:11:23;6.00;99.90
11505;DHT22;5809;53.262;10.408;2023-11-18T13:13:51;6.00;99.90
11505;DHT22;5809;53.262;10.408;2023-11-18T13:18:48;6.00;99.90
11505;DHT22;5809;53.262;10.408;2023-11-18T13:21:16;6.10;99.90
11505;DHT22;5809;53.262;10.408;2023-11-18T13:23:46;6.10;99.90
11505;DHT22;5809;53.262;10.408;2023-11-18T13:26:14;6.10;99.90
11505;DHT22;5809;53.262;10.408;2023-11-18T13:31:09;6.00;99.90
11505;DHT22;5809;53.262;10.408;2023-11-18T13:33:38;5.90;99.90
11505;DHT22;5809;53.262;10.408;2023-11-18T13:36:05;5.90;99.90
11505;DHT22;5809;53.262;10.408;2023-11-18T13:41:04;5.80;99.90
11505;DHT22;5809;53.262;10.408;2023-11-18T13:43:41;5.80;99.90
11505;DHT22;5809;53.262;10.408;2023-11-18T13:46:11;5.70;99.90
11505;DHT22;5809;53.262;10.408;2023-11-18T13:48:39;5.80;99.90
11505;DHT22;5809;53.262;10.408;2023-11-18T13:51:07;5.80;99.90
11505;DHT22;5809;53.262;10.408;2023-11-18T13:53:35;5.80;99.90
11505;DHT22;5809;53.262;10.408;2023-11-18T13:56:04;5.80;99.90
11505;DHT22;5809;53.262;10.408;2023-11-18T13:58:31;5.70;99.90
11505;DHT22;5809;53.262;10.408;2023-11-18T14:00:59;5.70;99.90
11505;DHT22;5809;53.262;10.408;2023-11-18T14:03:26;5.70;99.90
11505;DHT22;5809;53.262;10.408;2023-11-18T14:05:57;5.70;99.90
11505;DHT22;5809;53.262;10.408;2023-11-18T14:08:27;5.60;99.90
11505;DHT22;5809;53.262;10.408;2023-11-18T14:13:23;5.60;99.90
11505;DHT22;5809;53.262;10.408;2023-11-18T14:20:50;5.40;99.90
11505;DHT22;5809;53.262;10.408;2023-11-18T14:23:17;5.40;99.90
11505;DHT22;5809;53.262;10.408;2023-11-18T14:25:44;5.40;99.90
11505;DHT22;5809;53.262;10.408;2023-11-18T14:30:40;5.40;99.90
11505;DHT22;5809;53.262;10.408;2023-11-18T14:35:34;5.30;99.90
11505;DHT22;5809;53.262;10.408;2023-11-18T14:38:01;5.30;99.90
11505;DHT22;5809;53.262;10.408;2023-11-18T14:40:28;5.30;99.90
11505;DHT22;5809;53.262;10.408;2023-11-18T14:42:55;5.30;99.90
11505;DHT22;5809;53.262;10.408;2023-11-18T14:45:22;5.30;99.90
11505;DHT22;5809;53.262;10.408;2023-11-18T14:47:50;5.20;99.90
11505;DHT22;5809;53.262;10.408;2023-11-18T14:50:19;5.20;99.90
11505;DHT22;5809;53.262;10.408;2023-11-18T14:52:47;5.20;99.90
11505;DHT22;5809;53.262;10.408;2023-11-18T14:55:17;5.20;99.90
11505;DHT22;5809;53.262;10.408;2023-11-18T14:57:44;5.20;99.90
11505;DHT22;5809;53.262;10.408;2023-11-18T15:00:13;5.20;99.90
11505;DHT22;5809;53.262;10.408;2023-11-18T15:05:16;5.10;99.90
11505;DHT22;5809;53.262;10.408;2023-11-18T15:07:45;5.10;99.90
11505;DHT22;5809;53.262;10.408;2023-11-18T15:10:16;5.10;99.90
11505;DHT22;5809;53.262;10.408;2023-11-18T15:12:47;5.10;99.90
11505;DHT22;5809;53.262;10.408;2023-11-18T15:17:46;5.10;99.90
11505;DHT22;5809;53.262;10.408;2023-11-18T15:20:15;5.10;99.90
11505;DHT22;5809;53.262;10.408;2023-11-18T15:22:44;5.10;99.90
11505;DHT22;5809;53.262;10.408;2023-11-18T15:25:12;5.10;99.90
11505;DHT22;5809;53.262;10.408;2023-11-18T15:27:42;5.10;99.90
11505;DHT22;5809;53.262;10.408;2023-11-18T15:30:12;5.10;99.90
11505;DHT22;5809;53.262;10.408;2023-11-18T15:32:39;5.10;99.90
11505;DHT22;5809;53.262;10.408;2023-11-18T15:35:08;5.10;99.90
11505;DHT22;5809;53.262;10.408;2023-11-18T15:37:37;5.10;99.90
11505;DHT22;5809;53.262;10.408;2023-11-18T15:40:07;5.10;99.90
11505;DHT22;5809;53.262;10.408;2023-11-18T15:42:37;5.10;99.90
11505;DHT22;5809;53.262;10.408;2023-11-18T15:45:07;5.10;99.90
11505;DHT22;5809;53.262;10.408;2023-11-18T15:50:04;5.10;99.90
11505;DHT22;5809;53.262;10.408;2023-11-18T15:52:32;5.10;99.90
11505;DHT22;5809;53.262;10.408;2023-11-18T15:55:01;5.10;99.90
11505;DHT22;5809;53.262;10.408;2023-11-18T15:57:36;5.10;99.90
11505;DHT22;5809;53.262;10.408;2023-11-18T16:00:04;5.10;99.90
11505;DHT22;5809;53.262;10.408;2023-11-18T16:05:00;5.20;99.90
11505;DHT22;5809;53.262;10.408;2023-11-18T16:07:28;5.10;99.90
11505;DHT22;5809;53.262;10.408;2023-11-18T16:12:26;5.10;99.90
11505;DHT22;5809;53.262;10.408;2023-11-18T16:14:55;5.10;99.90
11505;DHT22;5809;53.262;10.408;2023-11-18T16:19:50;5.10;99.90
11505;DHT22;5809;53.262;10.408;2023-11-18T16:22:16;5.20;99.90
11505;DHT22;5809;53.262;10.408;2023-11-18T16:27:12;5.20;99.90
11505;DHT22;5809;53.262;10.408;2023-11-18T16:29:41;5.20;99.90
11505;DHT22;5809;53.262;10.408;2023-11-18T16:32:08;5.20;99.90
11505;DHT22;5809;53.262;10.408;2023-11-18T16:37:03;5.20;99.90
11505;DHT22;5809;53.262;10.408;2023-11-18T16:39:31;5.20;99.90
11505;DHT22;5809;53.262;10.408;2023-11-18T16:41:58;5.20;99.90
11505;DHT22;5809;53.262;10.408;2023-11-18T16:44:25;5.20;99.90
11505;DHT22;5809;53.262;10.408;2023-11-18T16:46:53;5.20;99.90
11505;DHT22;5809;53.262;10.408;2023-11-18T16:51:49;5.30;99.90
11505;DHT22;5809;53.262;10.408;2023-11-18T16:54:20;5.20;99.90
11505;DHT22;5809;53.262;10.408;2023-11-18T16:56:47;6.50;99.90
11505;DHT22;5809;53.262;10.408;2023-11-18T17:04:12;4.90;99.90
11505;DHT22;5809;53.262;10.408;2023-11-18T17:11:34;4.90;99.90
11505;DHT22;5809;53.262;10.408;2023-11-18T17:18:58;4.80;99.90
11505;DHT22;5809;53.262;10.408;2023-11-18T17:21:26;4.80;99.90
11505;DHT22;5809;53.262;10.408;2023-11-18T17:23:53;4.70;99.90
11505;DHT22;5809;53.262;10.408;2023-11-18T17:26:20;4.70;99.90
11505;DHT22;5809;53.262;10.408;2023-11-18T17:28:49;4.60;99.90
11505;DHT22;5809;53.262;10.408;2023-11-18T17:31:16;4.60;99.90
11505;DHT22;5809;53.262;10.408;2023-11-18T17:36:12;4.60;99.90
11505;DHT22;5809;53.262;10.408;2023-11-18T17:38:40;4.50;99.90
11505;DHT22;5809;53.262;10.408;2023-11-18T17:41:08;4.50;99.90
11505;DHT22;5809;53.262;10.408;2023-11-18T17:50:57;4.40;99.90
11505;DHT22;5809;53.262;10.408;2023-11-18T17:53:25;4.40;99.90
11505;DHT22;5809;53.262;10.408;2023-11-18T17:55:53;4.30;99.90
11505;DHT22;5809;53.262;10.408;2023-11-18T17:58:20;4.30;99.90
11505;DHT22;5809;53.262;10.408;2023-11-18T18:03:14;4.30;99.90
11505;DHT22;5809;53.262;10.408;2023-11-18T18:08:09;4.30;99.90
11505;DHT22;5809;53.262;10.408;2023-11-18T18:13:06;4.30;99.90
11505;DHT22;5809;53.262;10.408;2023-11-18T18:15:33;4.30;99.90
11505;DHT22;5809;53.262;10.408;2023-11-18T18:18:00;4.20;99.90
11505;DHT22;5809;53.262;10.408;2023-11-18T18:30:18;4.30;99.90
11505;DHT22;5809;53.262;10.408;2023-11-18T18:32:45;4.30;99.90
11505;DHT22;5809;53.262;10.408;2023-11-18T18:37:43;4.30;99.90
11505;DHT22;5809;53.262;10.408;2023-11-18T18:40:11;4.30;99.90
11505;DHT22;5809;53.262;10.408;2023-11-18T18:42:40;4.30;99.90
11505;DHT22;5809;53.262;10.408;2023-11-18T18:45:08;4.30;99.90
11505;DHT22;5809;53.262;10.408;2023-11-18T18:47:37;4.30;99.90
11505;DHT22;5809;53.262;10.408;2023-11-18T18:50:04;4.30;99.90
11505;DHT22;5809;53.262;10.408;2023-11-18T18:59:54;4.20;99.90
11505;DHT22;5809;53.262;10.408;2023-11-18T19:04:49;4.30;99.90
11505;DHT22;5809;53.262;10.408;2023-11-18T19:07:16;4.30;99.90
11505;DHT22;5809;53.262;10.408;2023-11-18T19:09:46;4.30;99.90
11505;DHT22;5809;53.262;10.408;2023-11-18T19:12:14;4.30;99.90
11505;DHT22;5809;53.262;10.408;2023-11-18T19:22:04;4.30;99.90
11505;DHT22;5809;53.262;10.408;2023-11-18T19:26:59;4.30;99.90
11505;DHT22;5809;53.262;10.408;2023-11-18T19:29:26;4.30;99.90
11505;DHT22;5809;53.262;10.408;2023-11-18T19:39:16;4.30;99.90
11505;DHT22;5809;53.262;10.408;2023-11-18T19:41:45;4.30;99.90
11505;DHT22;5809;53.262;10.408;2023-11-18T19:51:36;4.70;99.90
11505;DHT22;5809;53.262;10.408;2023-11-18T19:54:03;4.30;99.90
11505;DHT22;5809;53.262;10.408;2023-11-18T19:56:31;4.30;99.90
11505;DHT22;5809;53.262;10.408;2023-11-18T20:01:25;4.30;99.90
11505;DHT22;5809;53.262;10.408;2023-11-18T20:03:54;4.30;99.90
11505;DHT22;5809;53.262;10.408;2023-11-18T20:06:20;4.30;99.90
11505;DHT22;5809;53.262;10.408;2023-11-18T20:11:14;4.30;99.90
11505;DHT22;5809;53.262;10.408;2023-11-18T20:13:43;4.30;99.90
11505;DHT22;5809;53.262;10.408;2023-11-18T20:18:37;4.30;99.90
11505;DHT22;5809;53.262;10.408;2023-11-18T20:21:05;4.20;99.90
11505;DHT22;5809;53.262;10.408;2023-11-18T20:23:33;4.20;99.90
11505;DHT22;5809;53.262;10.408;2023-11-18T20:26:01;4.20;99.90
11505;DHT22;5809;53.262;10.408;2023-11-18T20:31:01;4.20;99.90
11505;DHT22;5809;53.262;10.408;2023-11-18T20:33:28;4.20;99.90
11505;DHT22;5809;53.262;10.408;2023-11-18T20:35:55;4.20;99.90
11505;DHT22;5809;53.262;10.408;2023-11-18T20:38:23;4.20;99.90
11505;DHT22;5809;53.262;10.408;2023-11-18T20:40:50;4.20;99.90
11505;DHT22;5809;53.262;10.408;2023-11-18T20:43:17;4.30;99.90
11505;DHT22;5809;53.262;10.408;2023-11-18T20:48:14;4.20;99.90
11505;DHT22;5809;53.262;10.408;2023-11-18T20:50:41;4.20;99.90
11505;DHT22;5809;53.262;10.408;2023-11-18T20:53:09;4.20;99.90
11505;DHT22;5809;53.262;10.408;2023-11-18T20:55:36;4.20;99.90
11505;DHT22;5809;53.262;10.408;2023-11-18T21:00:31;4.20;99.90
11505;DHT22;5809;53.262;10.408;2023-11-18T21:02:57;4.20;99.90
11505;DHT22;5809;53.262;10.408;2023-11-18T21:05:26;4.20;99.90
11505;DHT22;5809;53.262;10.408;2023-11-18T21:07:54;4.20;99.90
11505;DHT22;5809;53.262;10.408;2023-11-18T21:10:23;4.20;99.90
11505;DHT22;5809;53.262;10.408;2023-11-18T21:15:17;4.20;99.90
11505;DHT22;5809;53.262;10.408;2023-11-18T21:17:44;4.20;99.90
11505;DHT22;5809;53.262;10.408;2023-11-18T21:20:11;4.30;99.90
11505;DHT22;5809;53.262;10.408;2023-11-18T21:22:41;6.90;99.90
11505;DHT22;5809;53.262;10.408;2023-11-18T21:25:09;4.30;99.90
11505;DHT22;5809;53.262;10.408;2023-11-18T21:27:37;4.30;99.90
11505;DHT22;5809;53.262;10.408;2023-11-18T21:30:05;4.30;99.90
11505;DHT22;5809;53.262;10.408;2023-11-18T21:35:08;4.30;99.90
11505;DHT22;5809;53.262;10.408;2023-11-18T21:37:35;4.30;99.90
11505;DHT22;5809;53.262;10.408;2023-11-18T21:40:06;4.20;99.90
11505;DHT22;5809;53.262;10.408;2023-11-18T21:42:33;4.30;99.90
11505;DHT22;5809;53.262;10.408;2023-11-18T21:47:28;4.30;99.90
11505;DHT22;5809;53.262;10.408;2023-11-18T21:49:56;4.30;99.90
11505;DHT22;5809;53.262;10.408;2023-11-18T21:52:24;4.30;99.90
11505;DHT22;5809;53.262;10.408;2023-11-18T21:54:51;4.30;99.90
11505;DHT22;5809;53.262;10.408;2023-11-18T21:57:20;4.30;99.90
11505;DHT22;5809;53.262;10.408;2023-11-18T21:59:47;4.30;99.90
11505;DHT22;5809;53.262;10.408;2023-11-18T22:02:16;4.30;99.90
11505;DHT22;5809;53.262;10.408;2023-11-18T22:07:10;4.30;99.90
11505;DHT22;5809;53.262;10.408;2023-11-18T22:09:37;4.40;99.90
11505;DHT22;5809;53.262;10.408;2023-11-18T22:12:05;4.40;99.90
11505;DHT22;5809;53.262;10.408;2023-11-18T22:14:33;4.40;99.90
11505;DHT22;5809;53.262;10.408;2023-11-18T22:19:27;4.40;99.90
11505;DHT22;5809;53.262;10.408;2023-11-18T22:24:22;4.40;99.90
11505;DHT22;5809;53.262;10.408;2023-11-18T22:29:16;4.40;99.90
11505;DHT22;5809;53.262;10.408;2023-11-18T22:31:44;4.50;99.90
11505;DHT22;5809;53.262;10.408;2023-11-18T22:41:37;4.50;99.90
11505;DHT22;5809;53.262;10.408;2023-11-18T22:44:05;4.50;99.90
11505;DHT22;5809;53.262;10.408;2023-11-18T22:46:33;4.50;99.90